Time;durP1;ratioP1;P1;durP2;ratioP2;P2;SDS_P1;SDS_P2;PMS_P1;PMS_P2;Temp;Humidity;BMP_temperature;BMP_pressure;BME280_temperature;BME280_humidity;BME280_pressure;Samples;Min_cycle;Max_cycle;Signal;HPM_P1;HPM_P2
2022/05/23 00:01:19;;;;;;;2.55;0.70;;;13.50;99.90;;;;;;5065348;28;20445;-71
2022/05/23 00:03:45;;;;;;;1.17;0.57;;;13.60;99.90;;;;;;5065061;28;20025;-71
2022/05/23 00:06:14;;;;;;;1.38;0.73;;;13.60;99.90;;;;;;5065479;28;20059;-71
2022/05/23 00:08:40;;;;;;;5.30;0.98;;;13.50;99.90;;;;;;5065299;28;20028;-72
2022/05/23 00:11:05;;;;;;;3.95;1.00;;;13.50;99.90;;;;;;5064957;28;20048;-72
2022/05/23 00:13:31;;;;;;;2.05;0.88;;;13.60;99.90;;;;;;5065219;28;20025;-71
2022/05/23 00:15:57;;;;;;;2.90;0.93;;;13.50;99.90;;;;;;5065108;28;20025;-71
2022/05/23 00:18:23;;;;;;;2.13;0.88;;;13.60;99.90;;;;;;5064641;28;20027;-71
2022/05/23 00:20:48;;;;;;;1.27;0.85;;;13.50;99.90;;;;;;5064705;28;20064;-73
2022/05/23 00:23:14;;;;;;;5.20;0.95;;;13.50;99.90;;;;;;5047085;28;20033;-70
2022/05/23 00:25:40;;;;;;;2.95;0.80;;;13.50;99.90;;;;;;5064846;28;20040;-73
2022/05/23 00:28:05;;;;;;;2.63;0.98;;;13.50;99.90;;;;;;5065134;28;20039;-72
2022/05/23 00:30:32;;;;;;;3.92;1.05;;;13.50;99.90;;;;;;5064383;28;20056;-72
2022/05/23 00:35:50;;;;;;;2.45;1.00;;;13.50;99.90;;;;;;5065334;28;20059;-72
2022/05/23 00:38:15;;;;;;;2.47;0.63;;;13.50;99.90;;;;;;5064710;28;20040;-71
2022/05/23 00:44:00;;;;;;;4.43;1.17;;;13.40;99.90;;;;;;5064697;28;20060;-71
2022/05/23 00:46:26;;;;;;;2.75;0.90;;;13.40;99.90;;;;;;5064780;28;20035;-71
2022/05/23 00:48:52;;;;;;;6.57;1.02;;;13.40;99.90;;;;;;5064814;28;20053;-72
2022/05/23 00:51:19;;;;;;;3.25;1.00;;;13.40;99.90;;;;;;5064628;28;20035;-71
2022/05/23 00:53:50;;;;;;;3.70;1.10;;;13.30;99.90;;;;;;5064631;28;20022;-72
2022/05/23 00:56:18;;;;;;;0.75;0.40;;;13.30;99.90;;;;;;5064663;28;20033;-71
2022/05/23 00:58:51;;;;;;;1.35;0.90;;;13.30;99.90;;;;;;5064425;28;20029;-71
2022/05/23 01:01:22;;;;;;;2.30;1.25;;;13.30;99.90;;;;;;5047028;28;20052;-73
2022/05/23 01:03:47;;;;;;;5.43;1.20;;;13.20;99.90;;;;;;5064506;28;20033;-71
2022/05/23 01:06:13;;;;;;;5.90;1.00;;;13.20;99.90;;;;;;5064401;28;20066;-72
2022/05/23 01:08:47;;;;;;;3.92;1.40;;;13.10;99.90;;;;;;5065009;28;20078;-72
2022/05/23 01:11:14;;;;;;;0.90;0.68;;;13.00;99.90;;;;;;5064601;28;20059;-71
2022/05/23 01:13:40;;;;;;;2.38;1.08;;;13.00;99.90;;;;;;5064535;28;20032;-72
2022/05/23 01:16:06;;;;;;;8.57;1.30;;;12.90;99.90;;;;;;5064650;28;20033;-70
2022/05/23 01:18:32;;;;;;;1.23;0.65;;;12.90;99.90;;;;;;5064162;28;20500;-71
2022/05/23 01:21:01;;;;;;;2.67;1.08;;;12.90;99.90;;;;;;5064428;28;20027;-72
2022/05/23 01:23:34;;;;;;;4.10;0.98;;;12.80;99.90;;;;;;5046464;28;20025;-70
2022/05/23 01:26:00;;;;;;;3.53;1.40;;;12.80;99.90;;;;;;5046156;28;20025;-71
2022/05/23 01:28:25;;;;;;;0.70;0.70;;;12.80;99.90;;;;;;5064366;28;20079;-71
2022/05/23 01:30:51;;;;;;;1.42;1.00;;;12.80;99.90;;;;;;5064155;28;20025;-72
2022/05/23 01:33:17;;;;;;;2.88;1.05;;;12.80;99.90;;;;;;5066061;28;20080;-71
2022/05/23 01:35:43;;;;;;;5.68;1.40;;;12.70;99.90;;;;;;5068130;28;20028;-72
2022/05/23 01:38:09;;;;;;;1.63;1.05;;;12.70;99.90;;;;;;5068202;28;20043;-71
2022/05/23 01:40:35;;;;;;;2.53;1.00;;;12.70;99.90;;;;;;5067592;28;20151;-71
2022/05/23 01:43:01;;;;;;;2.58;1.15;;;12.70;99.90;;;;;;5067615;28;20045;-71
2022/05/23 01:45:30;;;;;;;3.03;1.48;;;12.70;99.90;;;;;;5050076;28;20029;-71
2022/05/23 01:47:57;;;;;;;1.83;1.00;;;12.60;99.90;;;;;;5067582;28;20049;-71
2022/05/23 01:50:23;;;;;;;4.65;1.00;;;12.60;99.90;;;;;;5067807;28;20055;-72
2022/05/23 01:52:50;;;;;;;2.97;1.48;;;12.60;99.90;;;;;;5067762;28;20055;-72
2022/05/23 01:55:16;;;;;;;5.25;1.85;;;12.60;99.90;;;;;;5067309;28;20033;-71
2022/05/23 01:57:42;;;;;;;5.13;1.58;;;12.60;99.90;;;;;;5067692;28;20025;-71
2022/05/23 02:02:53;;;;;;;2.70;1.60;;;12.50;99.90;;;;;;5067581;28;20094;-71
2022/05/23 02:05:20;;;;;;;4.72;1.60;;;12.50;99.90;;;;;;5067733;28;20025;-72
2022/05/23 02:07:49;;;;;;;1.98;1.35;;;12.40;99.90;;;;;;5067417;28;20025;-72
2022/05/23 02:10:15;;;;;;;2.45;1.08;;;12.40;99.90;;;;;;5067135;28;20041;-71
2022/05/23 02:12:40;;;;;;;3.42;1.17;;;12.30;99.90;;;;;;5067455;28;20362;-71
2022/05/23 02:15:07;;;;;;;1.90;1.30;;;12.30;99.90;;;;;;5067408;28;20039;-71
2022/05/23 02:17:34;;;;;;;1.55;1.17;;;12.30;99.90;;;;;;5067047;28;20457;-71
2022/05/23 02:19:59;;;;;;;2.08;1.00;;;12.30;99.90;;;;;;5067325;28;20084;-71
2022/05/23 02:22:25;;;;;;;2.83;1.40;;;12.30;99.90;;;;;;5066920;28;20033;-72
2022/05/23 02:24:51;;;;;;;5.93;1.30;;;12.30;99.90;;;;;;5066917;28;20045;-71
2022/05/23 02:27:16;;;;;;;2.05;1.10;;;12.30;99.90;;;;;;5067117;28;20025;-71
2022/05/23 02:29:42;;;;;;;1.20;1.00;;;12.20;99.90;;;;;;5066674;28;20094;-72
2022/05/23 02:32:10;;;;;;;2.25;1.23;;;12.20;99.90;;;;;;5067187;28;20072;-71
2022/05/23 02:34:36;;;;;;;1.52;1.08;;;12.20;99.90;;;;;;5067210;28;20389;-71
2022/05/23 02:37:02;;;;;;;1.80;1.23;;;12.20;99.90;;;;;;5066798;28;20025;-70
2022/05/23 02:39:28;;;;;;;2.05;1.42;;;12.10;99.90;;;;;;5066988;28;20025;-71
2022/05/23 02:41:54;;;;;;;2.22;1.15;;;12.10;99.90;;;;;;5066759;28;20108;-72
2022/05/23 02:44:20;;;;;;;7.05;1.90;;;12.10;99.90;;;;;;5065896;28;20051;-72
2022/05/23 02:46:46;;;;;;;1.67;1.20;;;12.00;99.90;;;;;;5066746;28;20081;-71
2022/05/23 02:49:12;;;;;;;3.33;1.48;;;12.10;99.90;;;;;;5066771;28;20055;-73
2022/05/23 02:51:38;;;;;;;4.30;1.40;;;12.00;99.90;;;;;;5066649;28;20093;-72
2022/05/23 02:54:04;;;;;;;2.22;1.45;;;12.00;99.90;;;;;;5066799;28;20457;-70
2022/05/23 02:56:31;;;;;;;4.13;1.23;;;12.00;99.90;;;;;;5066345;28;20049;-71
2022/05/23 02:58:57;;;;;;;2.97;1.27;;;12.00;99.90;;;;;;5066141;28;20025;-71
2022/05/23 03:01:23;;;;;;;8.05;1.67;;;12.00;99.90;;;;;;5066566;28;20032;-72
2022/05/23 03:03:49;;;;;;;2.55;1.23;;;11.90;99.90;;;;;;5066279;28;20032;-73
2022/05/23 03:06:14;;;;;;;5.40;1.85;;;12.00;99.90;;;;;;5066345;28;20056;-73
2022/05/23 03:08:40;;;;;;;10.27;1.40;;;12.00;99.90;;;;;;5066508;28;20036;-74
2022/05/23 03:11:08;;;;;;;6.07;1.98;;;12.00;99.90;;;;;;5065894;28;20053;-71
2022/05/23 03:13:34;;;;;;;1.88;1.27;;;12.00;99.90;;;;;;5065934;28;20020;-71
2022/05/23 03:16:01;;;;;;;6.60;1.85;;;12.00;99.90;;;;;;5066207;28;20021;-71
2022/05/23 03:18:28;;;;;;;8.77;1.95;;;12.00;99.90;;;;;;5065668;28;20044;-72
2022/05/23 03:21:00;;;;;;;4.55;2.03;;;12.00;99.90;;;;;;5066152;28;20035;-71
2022/05/23 03:28:56;;;;;;;15.30;2.88;;;12.00;99.90;;;;;;5065835;28;20082;-71
2022/05/23 03:31:21;;;;;;;3.10;1.88;;;12.00;99.90;;;;;;5065730;28;20768;-72
2022/05/23 03:33:47;;;;;;;6.60;2.00;;;12.00;99.90;;;;;;5065851;28;20077;-72
2022/05/23 03:36:12;;;;;;;2.60;1.80;;;12.00;99.90;;;;;;5065987;28;20033;-72
2022/05/23 03:38:38;;;;;;;3.03;1.42;;;12.00;99.90;;;;;;5065531;28;20082;-71
2022/05/23 03:41:09;;;;;;;3.92;1.48;;;12.00;99.90;;;;;;5063068;28;20097;-72
2022/05/23 03:43:34;;;;;;;2.35;1.48;;;12.00;99.90;;;;;;5045559;28;20108;-73
2022/05/23 03:46:08;;;;;;;2.10;1.50;;;12.10;99.90;;;;;;5060816;28;20029;-73
2022/05/23 03:48:34;;;;;;;3.85;1.90;;;12.10;99.90;;;;;;5065721;28;20040;-71
2022/05/23 03:51:00;;;;;;;4.10;1.70;;;12.10;99.90;;;;;;5065202;28;20049;-72
2022/05/23 03:53:26;;;;;;;3.47;2.10;;;12.10;99.90;;;;;;5065091;28;20045;-72
2022/05/23 03:55:52;;;;;;;3.83;1.88;;;12.20;99.90;;;;;;5064667;28;20028;-71
2022/05/23 03:58:18;;;;;;;2.25;1.50;;;12.20;99.90;;;;;;5065231;28;20016;-71
2022/05/23 04:00:49;;;;;;;3.25;1.67;;;12.20;99.90;;;;;;5056509;28;20037;-73
2022/05/23 04:03:18;;;;;;;3.13;1.50;;;12.30;99.90;;;;;;5045578;28;20021;-72
2022/05/23 04:05:43;;;;;;;1.85;1.38;;;12.30;99.90;;;;;;5057936;28;20469;-73
2022/05/23 04:08:10;;;;;;;5.82;1.92;;;12.30;99.90;;;;;;5065169;28;20046;-73
2022/05/23 04:10:36;;;;;;;3.53;1.88;;;12.30;99.90;;;;;;5065285;28;20033;-72
2022/05/23 04:13:03;;;;;;;3.22;1.40;;;12.40;99.90;;;;;;5055959;28;20478;-74
2022/05/23 04:15:30;;;;;;;2.55;1.35;;;12.40;99.90;;;;;;5055489;28;20044;-72
2022/05/23 04:17:56;;;;;;;2.72;1.60;;;12.50;99.90;;;;;;5045078;28;20025;-73
2022/05/23 04:20:22;;;;;;;2.33;1.45;;;12.50;99.90;;;;;;5027049;28;20039;-73
2022/05/23 04:22:51;;;;;;;3.72;2.00;;;12.60;99.90;;;;;;5047037;28;20033;-73
2022/05/23 04:25:16;;;;;;;3.20;1.60;;;12.70;99.90;;;;;;5048038;28;20040;-72
2022/05/23 04:27:42;;;;;;;2.72;1.45;;;12.70;99.90;;;;;;5058956;28;20025;-72
2022/05/23 04:30:10;;;;;;;5.68;2.03;;;12.70;99.90;;;;;;5064096;28;20045;-71
2022/05/23 04:35:22;;;;;;;2.03;1.17;;;12.90;99.90;;;;;;5063853;28;20032;-72
2022/05/23 04:37:50;;;;;;;2.83;1.65;;;12.90;99.90;;;;;;5061714;28;20025;-72
2022/05/23 04:40:20;;;;;;;5.10;1.88;;;12.90;99.90;;;;;;5063188;28;20036;-72
2022/05/23 04:42:45;;;;;;;2.72;1.58;;;13.00;99.90;;;;;;5061372;28;20060;-73
2022/05/23 04:45:12;;;;;;;2.25;1.38;;;13.10;99.90;;;;;;5060678;28;20037;-73
2022/05/23 04:50:31;;;;;;;2.30;1.65;;;13.10;99.90;;;;;;5030061;28;20165;-73
2022/05/23 04:52:57;;;;;;;2.42;1.38;;;13.10;99.90;;;;;;5050726;28;20096;-71
2022/05/23 04:55:24;;;;;;;6.80;2.38;;;13.20;99.90;;;;;;5061707;28;20028;-71
2022/05/23 04:57:50;;;;;;;2.65;1.25;;;13.20;99.90;;;;;;5064639;28;20040;-73
2022/05/23 05:00:18;;;;;;;1.92;1.30;;;13.30;99.90;;;;;;5063908;28;20032;-72
2022/05/23 05:02:46;;;;;;;2.15;1.38;;;13.30;99.90;;;;;;5062728;28;20037;-72
2022/05/23 05:05:13;;;;;;;3.10;1.58;;;13.40;99.90;;;;;;5043457;28;20063;-71
2022/05/23 05:07:38;;;;;;;2.80;1.20;;;13.40;99.90;;;;;;5065502;28;20696;-71
2022/05/23 05:10:05;;;;;;;3.90;1.58;;;13.50;99.90;;;;;;5065970;28;20065;-72
2022/05/23 05:12:31;;;;;;;2.95;1.50;;;13.50;99.90;;;;;;5048440;28;20370;-72
2022/05/23 05:14:58;;;;;;;5.93;1.33;;;13.50;99.90;;;;;;5067133;28;20037;-71
2022/05/23 05:17:24;;;;;;;8.43;1.70;;;13.70;99.90;;;;;;5067334;28;20033;-71
2022/05/23 05:19:50;;;;;;;3.17;1.65;;;13.80;99.90;;;;;;5066951;28;20025;-72
2022/05/23 05:22:16;;;;;;;3.85;1.58;;;13.80;99.90;;;;;;5068047;28;20040;-72
2022/05/23 05:24:42;;;;;;;3.03;1.50;;;13.90;99.90;;;;;;5067771;28;20025;-73
2022/05/23 05:27:09;;;;;;;3.67;1.50;;;13.90;99.90;;;;;;5067477;28;20032;-72
2022/05/23 05:29:35;;;;;;;3.53;1.58;;;14.00;99.90;;;;;;5067151;28;20048;-71
2022/05/23 05:32:07;;;;;;;2.58;1.23;;;14.10;99.90;;;;;;5063611;28;20049;-72
2022/05/23 05:34:54;;;;;;;4.45;1.60;;;14.10;99.90;;;;;;5059038;28;20046;-72
2022/05/23 05:37:27;;;;;;;2.95;1.52;;;14.20;99.90;;;;;;5050664;28;20033;-73
2022/05/23 05:39:54;;;;;;;4.43;1.42;;;14.20;99.90;;;;;;5050334;28;20062;-72
2022/05/23 05:42:31;;;;;;;1.30;1.10;;;14.30;99.90;;;;;;5049715;28;20504;-72
2022/05/23 05:45:05;;;;;;;1.67;1.25;;;14.40;99.90;;;;;;5052114;28;20032;-71
2022/05/23 05:47:34;;;;;;;3.65;1.55;;;14.40;99.90;;;;;;5029911;28;20440;-71
2022/05/23 05:50:06;;;;;;;1.48;1.15;;;14.40;99.90;;;;;;5057156;28;20515;-72
2022/05/23 05:52:33;;;;;;;7.50;1.85;;;14.50;99.90;;;;;;5059190;28;20028;-73
2022/05/23 05:55:00;;;;;;;2.10;1.27;;;14.60;99.90;;;;;;5051899;28;20030;-72
2022/05/23 05:57:27;;;;;;;9.68;1.73;;;14.50;99.90;;;;;;5064655;28;20025;-71
2022/05/23 05:59:53;;;;;;;2.03;1.25;;;14.60;99.90;;;;;;5066431;28;20025;-73
2022/05/23 06:02:19;;;;;;;7.70;1.40;;;14.60;99.90;;;;;;5066814;28;20029;-72
2022/05/23 06:04:45;;;;;;;2.45;1.33;;;14.70;99.90;;;;;;5058064;28;20031;-72
2022/05/23 06:12:56;;;;;;;2.03;1.10;;;14.80;99.90;;;;;;5056586;28;20147;-71
2022/05/23 06:15:22;;;;;;;2.05;1.15;;;14.90;99.90;;;;;;5067370;28;20025;-72
2022/05/23 06:17:50;;;;;;;1.65;1.10;;;14.90;99.90;;;;;;5046127;28;20485;-73
2022/05/23 06:20:16;;;;;;;1.50;1.20;;;14.90;99.90;;;;;;5052451;28;20104;-72
2022/05/23 06:22:41;;;;;;;3.38;1.42;;;15.00;99.90;;;;;;5063216;28;20032;-71
2022/05/23 06:25:09;;;;;;;4.15;1.60;;;15.00;99.90;;;;;;5055616;28;20088;-72
2022/05/23 06:27:35;;;;;;;2.60;1.48;;;15.10;99.90;;;;;;5052251;28;20516;-69
2022/05/23 06:30:00;;;;;;;4.55;1.10;;;15.20;99.90;;;;;;5064893;28;20045;-71
2022/05/23 06:32:26;;;;;;;4.57;1.48;;;15.30;99.90;;;;;;5060529;28;20043;-70
2022/05/23 06:34:52;;;;;;;4.25;1.45;;;15.30;99.90;;;;;;5055883;28;20057;-73
2022/05/23 06:37:17;;;;;;;7.47;1.48;;;15.40;99.90;;;;;;5046022;28;20028;-73
2022/05/23 06:39:43;;;;;;;3.40;1.50;;;15.50;99.90;;;;;;5053839;28;20041;-73
2022/05/23 06:42:09;;;;;;;5.03;1.52;;;15.60;99.90;;;;;;5040190;28;20033;-72
2022/05/23 06:44:34;;;;;;;2.47;1.17;;;15.70;99.90;;;;;;5066070;28;20033;-72
2022/05/23 06:47:01;;;;;;;2.85;1.65;;;15.80;99.90;;;;;;5065986;28;20099;-73
2022/05/23 06:49:27;;;;;;;3.45;1.50;;;15.90;99.90;;;;;;5064996;28;20066;-71
2022/05/23 06:51:52;;;;;;;2.47;1.38;;;16.00;99.90;;;;;;5060351;28;20033;-71
2022/05/23 06:54:20;;;;;;;2.90;1.35;;;16.10;99.90;;;;;;5063206;28;20029;-72
2022/05/23 06:56:48;;;;;;;3.97;1.88;;;16.30;99.90;;;;;;5060994;28;20107;-72
2022/05/23 06:59:15;;;;;;;3.55;1.35;;;16.30;99.90;;;;;;5059235;28;20089;-73
2022/05/23 07:01:43;;;;;;;4.32;1.30;;;16.40;99.90;;;;;;5064844;28;20025;-69
2022/05/23 07:04:08;;;;;;;6.68;1.63;;;16.50;99.90;;;;;;5066125;28;20028;-70
2022/05/23 07:12:21;;;;;;;2.15;1.30;;;16.80;99.90;;;;;;5049877;28;20041;-72
2022/05/23 07:14:56;;;;;;;5.00;1.48;;;16.90;99.90;;;;;;5064577;28;20021;-69
2022/05/23 07:17:23;;;;;;;2.78;1.83;;;17.00;99.90;;;;;;5066088;28;20064;-72
2022/05/23 07:19:49;;;;;;;3.22;1.60;;;17.10;99.90;;;;;;5062585;28;20032;-69
2022/05/23 07:22:15;;;;;;;3.22;1.35;;;17.20;99.90;;;;;;5064777;28;20037;-70
2022/05/23 07:24:41;;;;;;;2.70;1.50;;;17.20;99.90;;;;;;5063080;28;20024;-70
2022/05/23 07:27:12;;;;;;;1.35;1.05;;;17.20;99.90;;;;;;5060645;28;20025;-69
2022/05/23 07:29:38;;;;;;;2.80;1.67;;;17.30;99.90;;;;;;5065230;28;20127;-70
2022/05/23 07:32:05;;;;;;;4.18;1.67;;;17.40;99.90;;;;;;5057936;28;20017;-71
2022/05/23 07:34:30;;;;;;;3.13;1.40;;;17.50;99.90;;;;;;5055793;28;20092;-70
2022/05/23 07:36:58;;;;;;;8.20;1.50;;;17.60;99.90;;;;;;5042646;28;20068;-69
2022/05/23 07:39:24;;;;;;;5.80;1.20;;;17.70;99.90;;;;;;5056494;28;20040;-71
2022/05/23 07:41:50;;;;;;;4.18;1.45;;;17.90;99.90;;;;;;5064739;28;20033;-69
2022/05/23 07:44:22;;;;;;;2.08;1.20;;;18.00;99.90;;;;;;5045015;28;20060;-73
2022/05/23 07:46:48;;;;;;;5.10;1.65;;;18.00;99.90;;;;;;5047004;28;20033;-69
2022/05/23 07:49:13;;;;;;;2.17;1.33;;;18.00;99.90;;;;;;5064778;28;20116;-70
2022/05/23 07:51:39;;;;;;;4.72;1.75;;;18.00;99.90;;;;;;5068477;28;20048;-69
2022/05/23 08:02:18;;;;;;;6.05;1.35;;;18.40;99.90;;;;;;5065249;28;20044;-71
2022/05/23 08:04:44;;;;;;;1.83;1.25;;;18.40;99.90;;;;;;5058200;28;20027;-71
2022/05/23 08:07:11;;;;;;;1.95;1.45;;;18.50;99.90;;;;;;5045547;28;20096;-73
2022/05/23 08:09:41;;;;;;;3.53;1.88;;;18.60;99.90;;;;;;5043894;28;20045;-72
2022/05/23 08:12:09;;;;;;;2.15;1.40;;;18.70;99.90;;;;;;5061943;28;20021;-71
2022/05/23 08:14:34;;;;;;;2.08;1.25;;;18.70;99.90;;;;;;5064706;28;20013;-71
2022/05/23 08:17:00;;;;;;;2.25;1.60;;;18.80;99.90;;;;;;5064648;28;20029;-69
2022/05/23 08:19:25;;;;;;;3.33;1.73;;;18.80;99.90;;;;;;5065045;28;20028;-72
2022/05/23 08:21:54;;;;;;;9.38;1.98;;;18.90;99.90;;;;;;5064998;28;20517;-70
2022/05/23 08:24:20;;;;;;;3.83;1.80;;;19.00;99.90;;;;;;5064749;28;20029;-70
2022/05/23 08:26:46;;;;;;;4.25;1.70;;;19.10;99.90;;;;;;5064893;28;20028;-73
2022/05/23 08:29:13;;;;;;;4.32;1.98;;;19.20;99.90;;;;;;5064993;28;20051;-71
2022/05/23 08:31:39;;;;;;;4.32;1.42;;;19.20;99.90;;;;;;5064918;28;20025;-72
2022/05/23 08:34:06;;;;;;;2.90;1.52;;;19.20;99.90;;;;;;5064745;28;20085;-70
2022/05/23 08:36:33;;;;;;;4.05;2.00;;;19.30;99.90;;;;;;5061590;28;20028;-71
2022/05/23 08:38:59;;;;;;;3.58;1.98;;;19.40;99.90;;;;;;5059123;28;20025;-71
2022/05/23 08:41:36;;;;;;;3.42;1.77;;;19.40;99.90;;;;;;5043121;28;20107;-70
2022/05/23 08:44:44;;;;;;;1.85;1.30;;;19.50;99.90;;;;;;5046852;28;20053;-71
2022/05/23 08:47:32;;;;;;;4.15;1.90;;;19.60;99.90;;;;;;5039629;28;20107;-71
2022/05/23 08:50:03;;;;;;;11.63;2.25;;;19.70;99.90;;;;;;5057380;28;20494;-72
2022/05/23 08:52:55;;;;;;;5.82;2.15;;;19.80;99.90;;;;;;5059061;28;20025;-70
2022/05/23 08:55:52;;;;;;;5.10;1.60;;;19.90;99.90;;;;;;5044867;28;20084;-70
2022/05/23 08:58:38;;;;;;;2.45;1.52;;;20.00;99.90;;;;;;5044353;28;20045;-70
2022/05/23 09:01:18;;;;;;;2.88;1.50;;;20.10;99.90;;;;;;5055815;28;20036;-69
2022/05/23 09:04:13;;;;;;;8.30;2.00;;;20.10;99.90;;;;;;5064815;28;20044;-69
2022/05/23 09:06:45;;;;;;;;;;;20.20;99.90;;;;;;5052436;28;20576;-70
2022/05/23 09:09:18;;;;;;;5.78;1.92;;;20.30;99.90;;;;;;5035817;28;19912;-71
2022/05/23 09:11:51;;;;;;;3.72;2.13;;;20.40;99.90;;;;;;5045317;28;20061;-70
2022/05/23 09:14:19;;;;;;;7.90;2.50;;;20.50;99.90;;;;;;5061512;28;20392;-72
2022/05/23 09:16:52;;;;;;;4.45;2.33;;;20.60;99.90;;;;;;5060039;28;20053;-73
2022/05/23 09:19:32;;;;;;;3.25;1.75;;;20.60;99.90;;;;;;5056567;28;20032;-71
2022/05/23 09:22:27;;;;;;;2.42;1.38;;;20.70;99.90;;;;;;5042814;28;20111;-69
2022/05/23 09:24:58;;;;;;;4.45;1.77;;;20.70;99.90;;;;;;5042181;28;20099;-69
2022/05/23 09:27:38;;;;;;;2.70;1.80;;;20.70;99.90;;;;;;5062966;28;20045;-70
2022/05/23 09:30:15;;;;;;;4.47;1.90;;;20.70;99.90;;;;;;5064126;28;20059;-71
2022/05/23 09:32:47;;;;;;;5.88;2.00;;;20.70;99.90;;;;;;5062555;28;20025;-70
2022/05/23 09:35:20;;;;;;;2.53;1.48;;;20.70;99.90;;;;;;5044830;28;20044;-71
2022/05/23 09:38:03;;;;;;;2.63;1.13;;;20.80;99.90;;;;;;5064372;28;20085;-71
2022/05/23 09:40:31;;;;;;;2.42;1.63;;;20.90;99.90;;;;;;5062889;28;20036;-69
2022/05/23 09:49:17;;;;;;;3.20;1.38;;;21.10;99.90;;;;;;5053163;28;20051;-74
2022/05/23 09:52:02;;;;;;;2.30;1.40;;;21.20;99.90;;;;;;5055400;28;20063;-74
2022/05/23 09:54:53;;;;;;;9.00;1.83;;;21.20;99.90;;;;;;5064042;28;20488;-70
2022/05/23 09:57:42;;;;;;;2.95;1.55;;;21.20;99.90;;;;;;5067101;28;20044;-71
2022/05/23 10:00:25;;;;;;;1.63;1.08;;;21.30;99.90;;;;;;5067942;28;20029;-69
2022/05/23 10:03:02;;;;;;;2.53;1.52;;;21.40;99.90;;;;;;5067442;28;20029;-73
2022/05/23 10:05:35;;;;;;;3.03;1.58;;;21.40;99.90;;;;;;5049523;28;20028;-72
2022/05/23 10:08:06;;;;;;;1.67;1.23;;;21.40;99.90;;;;;;5067334;28;20025;-71
2022/05/23 10:10:36;;;;;;;5.22;1.83;;;21.40;99.90;;;;;;5067310;28;20409;-71
2022/05/23 10:13:25;;;;;;;3.00;1.38;;;21.40;99.90;;;;;;5067257;28;20017;-72
2022/05/23 10:16:09;;;;;;;2.15;1.30;;;21.40;99.90;;;;;;5061028;28;20435;-72
2022/05/23 10:18:45;;;;;;;6.00;1.60;;;21.50;99.90;;;;;;5051464;28;20039;-72
2022/05/23 10:21:31;;;;;;;4.40;1.60;;;21.50;99.90;;;;;;5046638;28;20069;-71
2022/05/23 10:24:08;;;;;;;6.85;1.85;;;21.60;99.90;;;;;;5057116;28;20048;-69
2022/05/23 10:26:51;;;;;;;2.78;1.65;;;21.60;99.90;;;;;;5046845;28;20030;-73
2022/05/23 10:29:26;;;;;;;7.05;1.55;;;21.70;99.90;;;;;;5046581;28;20030;-72
2022/05/23 10:32:02;;;;;;;4.85;1.98;;;21.70;99.90;;;;;;5047018;28;20026;-70
2022/05/23 10:34:43;;;;;;;2.08;1.30;;;21.70;99.90;;;;;;5049549;28;20033;-70
2022/05/23 10:37:26;;;;;;;2.17;1.40;;;21.90;99.90;;;;;;5065253;28;20025;-72
2022/05/23 10:43:09;;;;;;;3.45;1.83;;;21.90;99.90;;;;;;5052661;28;20112;-70
2022/05/23 10:45:55;;;;;;;3.85;1.77;;;21.80;99.90;;;;;;5061354;28;20111;-71
2022/05/23 10:48:28;;;;;;;2.70;1.70;;;21.80;99.90;;;;;;5065631;28;20057;-70
2022/05/23 10:51:02;;;;;;;3.67;2.35;;;21.90;99.90;;;;;;5064966;28;20056;-69
2022/05/23 10:53:48;;;;;;;2.40;1.35;;;22.00;99.90;;;;;;5066898;28;20053;-71
2022/05/23 10:56:57;;;;;;;4.18;1.70;;;22.10;99.90;;;;;;5066712;28;20051;-70
2022/05/23 10:59:45;;;;;;;3.58;2.13;;;22.20;99.90;;;;;;5066342;28;20055;-73
2022/05/23 11:02:36;;;;;;;6.82;2.63;;;22.20;99.90;;;;;;5065260;28;20245;-70
2022/05/23 11:05:21;;;;;;;6.20;2.60;;;22.20;99.90;;;;;;5064467;28;20024;-70
2022/05/23 11:08:15;;;;;;;2.58;1.38;;;22.20;99.90;;;;;;5065942;28;20045;-70
2022/05/23 11:11:04;;;;;;;4.35;2.13;;;22.30;99.90;;;;;;5064488;28;20032;-72
2022/05/23 11:14:00;;;;;;;2.88;1.85;;;22.40;99.90;;;;;;5065409;28;20068;-69
2022/05/23 11:16:44;;;;;;;3.35;1.67;;;22.50;99.90;;;;;;5066534;28;20033;-70
2022/05/23 11:19:31;;;;;;;3.92;2.15;;;22.70;99.90;;;;;;5066072;28;20111;-70
2022/05/23 11:22:09;;;;;;;3.47;2.20;;;22.80;99.90;;;;;;5066024;28;20148;-69
2022/05/23 11:24:44;;;;;;;6.30;1.83;;;22.90;99.90;;;;;;5066229;28;20029;-69
2022/05/23 11:36:06;;;;;;;5.63;1.75;;;23.10;99.90;;;;;;5064367;28;20087;-71
2022/05/23 11:38:32;;;;;;;2.95;1.48;;;23.30;99.90;;;;;;5066087;28;20059;-72
2022/05/23 11:41:02;;;;;;;2.78;1.75;;;23.50;99.90;;;;;;5065376;28;20041;-74
2022/05/23 11:43:35;;;;;;;2.95;1.77;;;23.60;99.90;;;;;;5065496;28;20485;-71
2022/05/23 11:46:05;;;;;;;2.75;1.73;;;23.70;99.90;;;;;;5065630;28;20025;-68
2022/05/23 11:48:34;;;;;;;5.60;2.08;;;23.70;99.90;;;;;;5065425;28;20025;-70
2022/05/23 11:51:17;;;;;;;4.32;1.55;;;23.70;99.90;;;;;;5064062;28;20492;-72
2022/05/23 11:54:21;;;;;;;2.67;1.67;;;23.80;99.90;;;;;;5065712;28;20029;-69
2022/05/23 11:57:13;;;;;;;4.57;1.77;;;23.80;99.90;;;;;;5065169;28;20040;-68
2022/05/23 11:59:38;;;;;;;2.55;1.23;;;23.80;99.90;;;;;;5065549;28;20064;-73
2022/05/23 12:02:07;;;;;;;2.97;1.58;;;23.80;99.90;;;;;;5065159;28;20028;-69
2022/05/23 12:04:48;;;;;;;3.03;1.63;;;23.90;99.90;;;;;;5065390;28;20067;-68
2022/05/23 12:07:42;;;;;;;4.40;1.80;;;23.90;99.90;;;;;;5065433;28;20025;-71
2022/05/23 12:10:23;;;;;;;2.42;1.52;;;23.90;99.90;;;;;;5065275;28;20036;-73
2022/05/23 12:12:50;;;;;;;5.72;1.60;;;24.10;99.90;;;;;;5055789;28;20028;-71
2022/05/23 12:16:03;;;;;;;4.22;1.80;;;24.20;99.90;;;;;;5043849;28;20029;-69
2022/05/23 12:18:40;;;;;;;5.28;1.40;;;24.30;99.90;;;;;;5027025;28;20037;-71
2022/05/23 12:21:40;;;;;;;3.28;1.45;;;24.40;99.90;;;;;;5058273;28;20028;-69
2022/05/23 12:24:21;;;;;;;7.15;1.75;;;24.50;99.90;;;;;;5058441;28;20029;-70
2022/05/23 12:26:52;;;;;;;2.70;1.50;;;24.60;99.90;;;;;;5056298;28;20033;-73
2022/05/23 12:29:25;;;;;;;4.28;1.88;;;24.60;99.90;;;;;;5055063;28;20067;-70
2022/05/23 12:32:24;;;;;;;5.43;1.73;;;24.70;99.90;;;;;;5063168;28;20021;-70
2022/05/23 12:34:52;;;;;;;2.33;1.40;;;24.70;99.90;;;;;;5046786;28;20044;-70
2022/05/23 12:37:33;;;;;;;4.78;1.85;;;24.80;99.90;;;;;;5064207;28;20112;-72
2022/05/23 12:40:26;;;;;;;1.63;1.27;;;25.00;99.90;;;;;;5064383;28;20028;-68
2022/05/23 12:43:13;;;;;;;2.47;1.73;;;25.00;99.90;;;;;;5063472;28;20053;-70
2022/05/23 12:45:59;;;;;;;3.65;2.13;;;25.10;99.90;;;;;;5054858;28;20040;-70
2022/05/23 12:48:54;;;;;;;3.60;1.77;;;25.20;99.90;;;;;;5023267;28;20068;-72
2022/05/23 12:51:43;;;;;;;4.93;1.92;;;25.30;99.90;;;;;;5064248;28;20041;-70
2022/05/23 12:54:32;;;;;;;6.57;1.70;;;25.30;99.90;;;;;;5045106;28;20029;-70
2022/05/23 12:57:16;;;;;;;2.42;1.45;;;25.40;99.90;;;;;;5046503;28;20473;-68
2022/05/23 12:59:59;;;;;;;2.25;1.45;;;25.30;99.90;;;;;;5047618;28;20021;-73
2022/05/23 13:02:32;;;;;;;7.25;2.03;;;25.60;99.90;;;;;;5063937;28;20111;-69
2022/05/23 13:05:06;;;;;;;4.18;1.50;;;25.70;99.90;;;;;;5059085;28;20469;-69
2022/05/23 13:08:20;;;;;;;4.82;1.67;;;25.60;99.90;;;;;;5056373;28;20055;-70
2022/05/23 13:10:57;;;;;;;4.57;2.08;;;25.70;99.90;;;;;;5040368;28;20056;-72
2022/05/23 13:13:36;;;;;;;2.10;1.48;;;25.90;99.90;;;;;;5062349;28;20340;-70
2022/05/23 13:16:27;;;;;;;3.17;1.70;;;25.80;99.90;;;;;;5063072;28;20083;-70
2022/05/23 13:27:13;;;;;;;4.95;2.15;;;26.00;99.90;;;;;;5064667;28;20078;-68
2022/05/23 13:29:40;;;;;;;4.60;2.03;;;26.00;99.90;;;;;;5065582;28;20048;-70
2022/05/23 13:32:11;;;;;;;3.50;1.77;;;26.20;99.90;;;;;;5052238;28;20048;-72
2022/05/23 13:34:43;;;;;;;3.03;1.73;;;26.30;99.90;;;;;;5048507;28;20021;-71
2022/05/23 13:37:30;;;;;;;2.40;1.50;;;26.50;99.90;;;;;;5065694;28;20029;-73
2022/05/23 13:39:56;;;;;;;3.55;1.42;;;26.70;99.90;;;;;;5067364;28;20040;-69
2022/05/23 13:42:27;;;;;;;6.38;2.35;;;26.80;99.90;;;;;;5048775;28;20056;-68
2022/05/23 13:45:07;;;;;;;3.75;2.00;;;27.00;99.90;;;;;;5047603;28;20032;-69
2022/05/23 13:47:33;;;;;;;4.07;1.92;;;27.10;99.90;;;;;;5052936;28;20021;-70
2022/05/23 13:50:08;;;;;;;2.58;1.35;;;27.10;99.90;;;;;;5067848;28;20041;-69
2022/05/23 13:52:59;;;;;;;3.95;1.70;;;27.10;99.90;;;;;;5050559;28;20456;-68
2022/05/23 13:55:36;;;;;;;2.38;1.33;;;27.30;99.90;;;;;;5067976;28;20032;-70
2022/05/23 13:58:10;;;;;;;2.13;1.50;;;27.30;99.90;;;;;;5051547;28;20045;-71
2022/05/23 14:00:39;;;;;;;3.20;1.77;;;27.40;99.90;;;;;;5047658;28;20033;-71
2022/05/23 14:03:12;;;;;;;3.03;1.33;;;27.60;99.90;;;;;;5047552;28;20057;-70
2022/05/23 14:05:48;;;;;;;5.75;2.10;;;27.90;99.90;;;;;;5050133;28;20021;-74
2022/05/23 14:08:19;;;;;;;3.92;1.75;;;28.10;99.90;;;;;;5066923;28;20029;-73
2022/05/23 14:10:45;;;;;;;3.72;1.88;;;28.20;99.90;;;;;;5054492;28;20040;-70
2022/05/23 14:13:14;;;;;;;2.72;1.63;;;28.30;99.90;;;;;;5055818;28;20490;-69
2022/05/23 14:15:45;;;;;;;3.15;1.35;;;28.50;99.90;;;;;;5058117;28;20074;-74
2022/05/23 14:18:17;;;;;;;2.65;1.48;;;28.40;99.90;;;;;;5049014;28;20048;-71